Time;durP1;ratioP1;P1;durP2;ratioP2;P2;SDS_P1;SDS_P2;PMS_P1;PMS_P2;Temp;Humidity;BMP_temperature;BMP_pressure;BME280_temperature;BME280_humidity;BME280_pressure;Samples;Min_cycle;Max_cycle;Signal;HPM_P1;HPM_P2
2022/05/30 00:01:16;;;;;;;3.03;1.83;;;;;;;;;;5047479;28;20198;-32
2022/05/30 00:03:43;;;;;;;8.02;2.22;;;;;;;;;;5040354;28;20044;-34
2022/05/30 00:06:22;;;;;;;6.88;2.85;;;;;;;;;;5046473;28;20187;-30
2022/05/30 00:08:48;;;;;;;5.43;2.25;;;;;;;;;;5035987;28;20097;-31
2022/05/30 00:11:15;;;;;;;6.38;1.73;;;;;;;;;;5048108;28;20063;-30
2022/05/30 00:13:41;;;;;;;5.38;1.60;;;;;;;;;;5050631;28;20056;-30
2022/05/30 00:16:09;;;;;;;4.45;1.70;;;;;;;;;;5032663;28;20399;-29
2022/05/30 00:18:35;;;;;;;3.70;1.50;;;;;;;;;;5043062;28;20098;-30
2022/05/30 00:21:01;;;;;;;3.42;1.33;;;;;;;;;;5046365;28;20044;-29
2022/05/30 00:23:27;;;;;;;5.45;1.70;;;;;;;;;;5040202;28;20052;-29
2022/05/30 00:25:53;;;;;;;4.63;1.77;;;;;;;;;;5053946;28;20045;-30
2022/05/30 00:28:20;;;;;;;4.38;1.65;;;;;;;;;;5054155;28;20076;-29
2022/05/30 00:30:47;;;;;;;3.63;1.33;;;;;;;;;;5048536;28;20049;-30
2022/05/30 00:33:13;;;;;;;7.13;1.63;;;;;;;;;;5035567;28;20037;-30
2022/05/30 00:35:40;;;;;;;4.18;1.50;;;;;;;;;;5035421;28;20076;-30
2022/05/30 00:38:07;;;;;;;7.43;1.85;;;;;;;;;;5048332;28;20036;-31
2022/05/30 00:40:33;;;;;;;4.45;1.65;;;;;;;;;;5053883;28;20154;-32
2022/05/30 00:43:18;;;;;;;2.85;1.70;;;;;;;;;;5053451;28;20044;-30
2022/05/30 00:45:44;;;;;;;5.60;1.98;;;;;;;;;;5053679;28;20041;-29
2022/05/30 00:48:10;;;;;;;2.67;1.52;;;;;;;;;;5053562;28;20120;-29
2022/05/30 00:50:37;;;;;;;4.28;2.10;;;;;;;;;;5053714;28;20448;-30
2022/05/30 00:53:03;;;;;;;3.70;2.00;;;;;;;;;;5043876;28;20095;-30
2022/05/30 00:55:29;;;;;;;4.32;2.00;;;;;;;;;;5037064;28;20103;-30
2022/05/30 00:57:56;;;;;;;3.88;2.00;;;;;;;;;;5053496;28;20163;-29
2022/05/30 01:00:25;;;;;;;4.63;2.30;;;;;;;;;;5036697;28;20034;-29
2022/05/30 01:08:23;;;;;;;7.95;2.38;;;;;;;;;;5052886;28;20041;-31
2022/05/30 01:10:49;;;;;;;5.30;2.05;;;;;;;;;;5047395;28;20391;-29
2022/05/30 01:13:15;;;;;;;5.05;2.83;;;;;;;;;;5042948;28;20054;-30
2022/05/30 01:15:41;;;;;;;7.25;2.90;;;;;;;;;;5033497;28;20476;-29
2022/05/30 01:18:13;;;;;;;4.75;1.90;;;;;;;;;;5033133;28;20037;-29
2022/05/30 01:20:54;;;;;;;6.32;2.30;;;;;;;;;;5019559;28;20056;-30
2022/05/30 01:23:26;;;;;;;3.25;2.08;;;;;;;;;;5034851;28;20038;-30
2022/05/30 01:26:10;;;;;;;4.35;1.92;;;;;;;;;;5052869;28;20041;-29
2022/05/30 01:28:36;;;;;;;5.55;2.30;;;;;;;;;;5051891;28;20040;-29
2022/05/30 01:31:03;;;;;;;4.10;2.28;;;;;;;;;;5032275;28;20088;-30
2022/05/30 01:33:29;;;;;;;4.40;2.55;;;;;;;;;;5032793;28;20484;-29
2022/05/30 01:35:55;;;;;;;8.00;2.42;;;;;;;;;;5041081;28;20073;-30
2022/05/30 01:38:23;;;;;;;6.78;2.28;;;;;;;;;;5045828;28;20041;-30
2022/05/30 01:40:49;;;;;;;7.00;2.35;;;;;;;;;;5046349;28;20041;-29
2022/05/30 01:43:16;;;;;;;5.85;2.53;;;;;;;;;;5052847;28;20040;-29
2022/05/30 01:45:42;;;;;;;7.75;2.90;;;;;;;;;;5052784;28;20186;-30
2022/05/30 01:48:08;;;;;;;4.55;2.67;;;;;;;;;;5035859;28;20052;-29
2022/05/30 01:50:34;;;;;;;10.90;2.60;;;;;;;;;;5041690;28;20057;-29
2022/05/30 01:53:01;;;;;;;4.97;2.70;;;;;;;;;;5035246;28;20048;-29
2022/05/30 01:55:27;;;;;;;5.75;2.70;;;;;;;;;;5015141;28;20422;-29
2022/05/30 01:57:53;;;;;;;6.45;2.88;;;;;;;;;;5032429;28;20201;-29
2022/05/30 02:00:19;;;;;;;6.05;2.50;;;;;;;;;;5051266;28;20128;-30
2022/05/30 02:02:45;;;;;;;9.02;2.78;;;;;;;;;;5046813;28;20124;-30
2022/05/30 02:05:12;;;;;;;6.82;2.97;;;;;;;;;;5049356;28;20049;-29
2022/05/30 02:07:38;;;;;;;6.30;2.72;;;;;;;;;;5052185;28;20074;-28
2022/05/30 02:10:04;;;;;;;4.40;3.13;;;;;;;;;;5036257;28;20041;-29
2022/05/30 02:12:30;;;;;;;7.57;2.72;;;;;;;;;;5032206;28;20391;-29
2022/05/30 02:14:56;;;;;;;5.15;2.55;;;;;;;;;;5038782;28;20045;-30
2022/05/30 02:17:22;;;;;;;5.60;2.85;;;;;;;;;;5041512;28;20045;-29
2022/05/30 02:19:48;;;;;;;7.10;3.10;;;;;;;;;;5032200;28;20038;-29
2022/05/30 02:22:16;;;;;;;6.07;2.90;;;;;;;;;;5038551;28;20122;-29
2022/05/30 02:24:42;;;;;;;6.63;3.13;;;;;;;;;;5032209;28;20527;-29
2022/05/30 02:27:09;;;;;;;4.50;2.63;;;;;;;;;;5032158;28;20041;-29
2022/05/30 02:29:35;;;;;;;5.63;2.78;;;;;;;;;;5032572;28;20041;-28
2022/05/30 02:32:01;;;;;;;5.05;2.70;;;;;;;;;;5032561;28;20072;-29
2022/05/30 02:37:12;;;;;;;7.03;2.85;;;;;;;;;;5051632;28;20077;-29
2022/05/30 02:39:38;;;;;;;8.18;3.10;;;;;;;;;;5051631;28;20398;-30
2022/05/30 02:42:05;;;;;;;4.10;2.83;;;;;;;;;;5043546;28;20072;-29
2022/05/30 02:44:32;;;;;;;6.38;3.05;;;;;;;;;;5013501;28;20183;-30
2022/05/30 02:46:58;;;;;;;6.50;2.80;;;;;;;;;;5031498;28;20049;-29
2022/05/30 02:49:25;;;;;;;6.90;3.08;;;;;;;;;;5048190;28;20049;-29
2022/05/30 02:51:52;;;;;;;6.18;2.92;;;;;;;;;;5051227;28;20076;-29
2022/05/30 02:54:18;;;;;;;7.55;2.90;;;;;;;;;;5051846;28;20037;-30
2022/05/30 02:56:49;;;;;;;5.47;2.60;;;;;;;;;;5051798;28;20041;-29
2022/05/30 02:59:15;;;;;;;6.22;2.67;;;;;;;;;;5051261;28;20047;-29
2022/05/30 03:01:41;;;;;;;7.95;3.10;;;;;;;;;;5051283;28;20037;-30
2022/05/30 03:04:07;;;;;;;5.53;3.00;;;;;;;;;;5039381;28;20046;-29
2022/05/30 03:06:34;;;;;;;6.95;2.83;;;;;;;;;;5035464;28;20040;-29
2022/05/30 03:09:00;;;;;;;7.75;3.00;;;;;;;;;;5051367;28;20045;-29
2022/05/30 03:11:26;;;;;;;7.63;3.30;;;;;;;;;;5050734;28;20053;-28
2022/05/30 03:13:53;;;;;;;6.85;2.50;;;;;;;;;;5044128;28;20618;-34
2022/05/30 03:16:19;;;;;;;5.20;3.20;;;;;;;;;;5048567;28;20128;-28
2022/05/30 03:18:45;;;;;;;5.82;2.95;;;;;;;;;;5043349;28;20407;-31
2022/05/30 03:21:11;;;;;;;9.07;3.42;;;;;;;;;;5041210;28;20504;-30
2022/05/30 03:23:37;;;;;;;7.05;3.20;;;;;;;;;;5038664;28;20055;-32
2022/05/30 03:26:04;;;;;;;7.63;3.03;;;;;;;;;;5035427;28;20071;-32
2022/05/30 03:28:31;;;;;;;4.90;3.00;;;;;;;;;;5035198;28;20071;-31
2022/05/30 03:30:57;;;;;;;5.70;3.92;;;;;;;;;;5041825;28;20040;-30
2022/05/30 03:33:23;;;;;;;4.22;2.60;;;;;;;;;;5049751;28;20148;-31
2022/05/30 03:35:49;;;;;;;4.68;3.13;;;;;;;;;;5035827;28;20037;-31
2022/05/30 03:38:15;;;;;;;6.28;3.30;;;;;;;;;;5042308;28;20103;-33
2022/05/30 03:40:41;;;;;;;7.00;3.80;;;;;;;;;;5039547;28;20124;-33
2022/05/30 03:43:09;;;;;;;7.18;3.53;;;;;;;;;;5042678;28;20068;-31
2022/05/30 03:45:36;;;;;;;9.15;3.50;;;;;;;;;;5036884;28;20033;-31
2022/05/30 03:48:02;;;;;;;5.55;3.08;;;;;;;;;;5045216;28;20094;-31
2022/05/30 03:50:28;;;;;;;6.45;3.70;;;;;;;;;;5047129;28;20483;-31
2022/05/30 03:52:54;;;;;;;5.07;3.35;;;;;;;;;;5048460;28;20095;-30
2022/05/30 03:55:22;;;;;;;9.05;3.67;;;;;;;;;;5043502;28;20082;-31
2022/05/30 03:57:48;;;;;;;4.65;3.30;;;;;;;;;;5051614;28;20037;-31
2022/05/30 04:00:16;;;;;;;7.05;3.50;;;;;;;;;;5053257;28;20391;-30
2022/05/30 04:02:43;;;;;;;8.07;3.45;;;;;;;;;;5045517;28;20036;-31
2022/05/30 04:05:09;;;;;;;7.28;3.40;;;;;;;;;;5034020;28;20521;-31
2022/05/30 04:07:35;;;;;;;9.85;4.13;;;;;;;;;;5037440;28;20195;-32
2022/05/30 04:10:02;;;;;;;8.48;4.00;;;;;;;;;;5053096;28;20142;-31
2022/05/30 04:12:28;;;;;;;4.88;3.38;;;;;;;;;;5035875;28;20077;-31
2022/05/30 04:14:58;;;;;;;5.70;3.70;;;;;;;;;;5046981;28;20037;-30
2022/05/30 04:17:24;;;;;;;7.82;3.67;;;;;;;;;;5049338;28;20041;-30
2022/05/30 04:19:51;;;;;;;6.15;3.40;;;;;;;;;;5047201;28;20086;-31
2022/05/30 04:22:17;;;;;;;7.00;3.30;;;;;;;;;;5051352;28;20044;-32
2022/05/30 04:24:43;;;;;;;9.20;3.85;;;;;;;;;;5039061;28;20084;-32
2022/05/30 04:27:09;;;;;;;7.65;4.07;;;;;;;;;;5051739;28;20037;-31
2022/05/30 04:29:35;;;;;;;7.40;3.70;;;;;;;;;;5043359;28;20033;-31
2022/05/30 04:32:02;;;;;;;4.78;3.60;;;;;;;;;;5052395;28;20041;-31
2022/05/30 04:34:28;;;;;;;5.68;3.45;;;;;;;;;;5048436;28;20475;-32
2022/05/30 04:36:54;;;;;;;6.40;4.07;;;;;;;;;;5047535;28;20041;-31
2022/05/30 04:39:21;;;;;;;5.78;4.18;;;;;;;;;;5039262;28;20036;-31
2022/05/30 04:41:47;;;;;;;8.38;4.32;;;;;;;;;;5041553;28;20506;-31
2022/05/30 04:44:13;;;;;;;9.23;4.13;;;;;;;;;;5047425;28;20073;-30
2022/05/30 04:46:39;;;;;;;7.78;4.18;;;;;;;;;;5053852;28;20096;-29
2022/05/30 04:49:05;;;;;;;6.20;4.45;;;;;;;;;;5053585;28;20072;-29
2022/05/30 04:51:31;;;;;;;7.93;4.18;;;;;;;;;;5045046;28;20445;-30
2022/05/30 04:53:58;;;;;;;8.25;4.93;;;;;;;;;;5045343;28;20046;-28
2022/05/30 04:56:24;;;;;;;8.15;4.43;;;;;;;;;;5043221;28;20120;-29
2022/05/30 04:58:50;;;;;;;8.88;4.90;;;;;;;;;;5045100;28;20487;-29
2022/05/30 05:01:17;;;;;;;6.80;4.07;;;;;;;;;;5044053;28;20183;-29
2022/05/30 05:03:43;;;;;;;8.80;5.07;;;;;;;;;;5042161;28;20050;-29
2022/05/30 05:06:19;;;;;;;6.18;4.63;;;;;;;;;;5046257;28;20037;-28
2022/05/30 05:08:53;;;;;;;8.48;4.65;;;;;;;;;;5047791;28;20040;-29
2022/05/30 05:11:21;;;;;;;5.15;4.30;;;;;;;;;;5044635;28;20076;-28
2022/05/30 05:13:47;;;;;;;7.35;4.35;;;;;;;;;;5045320;28;20537;-29
2022/05/30 05:16:14;;;;;;;6.22;4.60;;;;;;;;;;5045386;28;20042;-30
2022/05/30 05:18:41;;;;;;;7.30;4.18;;;;;;;;;;5044373;28;20086;-29
2022/05/30 05:21:07;;;;;;;8.90;3.95;;;;;;;;;;5048321;28;20036;-29
2022/05/30 05:23:34;;;;;;;7.20;4.03;;;;;;;;;;5044143;28;20033;-28
2022/05/30 05:26:01;;;;;;;7.97;4.18;;;;;;;;;;5008147;28;20041;-29
2022/05/30 05:28:27;;;;;;;5.20;4.18;;;;;;;;;;5047865;28;20045;-28
2022/05/30 05:30:53;;;;;;;6.97;4.07;;;;;;;;;;5049419;28;20402;-29
2022/05/30 05:33:19;;;;;;;6.32;5.13;;;;;;;;;;5043457;28;20384;-29
2022/05/30 05:35:46;;;;;;;5.88;4.15;;;;;;;;;;5039633;28;20558;-28
2022/05/30 05:38:13;;;;;;;6.07;4.32;;;;;;;;;;5043556;28;20102;-29
2022/05/30 05:40:40;;;;;;;8.43;4.50;;;;;;;;;;5013806;28;20479;-30
2022/05/30 05:43:06;;;;;;;9.25;4.05;;;;;;;;;;5042719;28;20033;-29
2022/05/30 05:45:39;;;;;;;4.60;3.42;;;;;;;;;;5042413;28;20116;-28
2022/05/30 05:48:06;;;;;;;7.30;4.33;;;;;;;;;;5046370;28;20075;-28
2022/05/30 05:50:32;;;;;;;7.53;3.70;;;;;;;;;;5051266;28;20275;-29
2022/05/30 05:52:58;;;;;;;4.15;3.65;;;;;;;;;;5047910;28;20048;-29
2022/05/30 05:55:24;;;;;;;5.60;3.22;;;;;;;;;;5043525;28;20119;-28
2022/05/30 05:57:50;;;;;;;7.78;3.60;;;;;;;;;;5051393;28;20040;-31
2022/05/30 06:00:17;;;;;;;4.97;3.22;;;;;;;;;;5051207;28;20090;-29
2022/05/30 06:02:43;;;;;;;8.35;3.38;;;;;;;;;;5046656;28;20049;-29
2022/05/30 06:05:10;;;;;;;9.75;3.83;;;;;;;;;;5047888;28;20044;-28
2022/05/30 06:07:36;;;;;;;6.65;3.97;;;;;;;;;;5038550;28;20239;-27
2022/05/30 06:10:03;;;;;;;6.30;3.58;;;;;;;;;;5048730;28;20037;-28
2022/05/30 06:12:29;;;;;;;5.40;2.80;;;;;;;;;;5050078;28;20116;-29
2022/05/30 06:14:56;;;;;;;5.30;2.55;;;;;;;;;;5041040;28;20038;-29
2022/05/30 06:17:22;;;;;;;4.20;2.47;;;;;;;;;;5047717;28;20140;-29
2022/05/30 06:19:48;;;;;;;4.95;1.80;;;;;;;;;;5044829;28;20047;-29
2022/05/30 06:22:14;;;;;;;5.97;2.35;;;;;;;;;;5044963;28;20037;-29
2022/05/30 06:24:40;;;;;;;7.65;2.72;;;;;;;;;;5044321;28;20041;-28
2022/05/30 06:27:06;;;;;;;6.72;2.28;;;;;;;;;;5049751;28;20388;-28
2022/05/30 06:29:36;;;;;;;4.82;2.20;;;;;;;;;;5050638;28;20041;-29
2022/05/30 06:32:02;;;;;;;4.45;2.00;;;;;;;;;;5047595;28;20041;-28
2022/05/30 06:34:28;;;;;;;4.55;1.42;;;;;;;;;;5045350;28;20102;-29
2022/05/30 06:36:54;;;;;;;5.35;1.88;;;;;;;;;;5051283;28;20033;-29
2022/05/30 06:39:20;;;;;;;3.35;1.42;;;;;;;;;;5049072;28;20041;-29
2022/05/30 06:41:48;;;;;;;3.22;1.40;;;;;;;;;;5051573;28;20041;-29
2022/05/30 06:44:14;;;;;;;2.35;1.33;;;;;;;;;;5037634;28;20064;-29
2022/05/30 06:46:40;;;;;;;4.30;1.33;;;;;;;;;;5040326;28;20037;-31
2022/05/30 06:49:07;;;;;;;2.05;0.90;;;;;;;;;;5045392;28;20526;-31
2022/05/30 06:51:37;;;;;;;5.22;1.20;;;;;;;;;;5038053;28;20476;-31
2022/05/30 06:54:04;;;;;;;2.75;1.10;;;;;;;;;;5042663;28;20037;-30
2022/05/30 06:56:32;;;;;;;3.47;0.93;;;;;;;;;;5041980;28;20056;-31
2022/05/30 06:58:58;;;;;;;1.60;0.82;;;;;;;;;;5034480;28;20491;-31
2022/05/30 07:01:28;;;;;;;2.95;1.02;;;;;;;;;;5040466;28;20502;-31
2022/05/30 07:03:54;;;;;;;1.90;1.10;;;;;;;;;;5036955;28;20183;-31
2022/05/30 07:06:25;;;;;;;2.47;1.00;;;;;;;;;;5019701;28;20037;-30
2022/05/30 07:08:51;;;;;;;3.92;1.00;;;;;;;;;;5044456;28;20041;-31
2022/05/30 07:11:18;;;;;;;3.90;1.10;;;;;;;;;;5041795;28;20041;-30
2022/05/30 07:13:44;;;;;;;2.03;1.30;;;;;;;;;;5042824;28;20124;-32
2022/05/30 07:16:11;;;;;;;1.92;1.02;;;;;;;;;;5040460;28;20110;-31
2022/05/30 07:18:39;;;;;;;2.38;0.90;;;;;;;;;;5040152;28;20029;-32
2022/05/30 07:21:06;;;;;;;2.33;0.77;;;;;;;;;;5041990;28;20518;-31
2022/05/30 07:23:33;;;;;;;4.22;1.33;;;;;;;;;;5047877;28;20045;-30
2022/05/30 07:26:00;;;;;;;2.08;0.88;;;;;;;;;;5047935;28;20037;-30
2022/05/30 07:28:28;;;;;;;2.90;0.77;;;;;;;;;;5043378;28;20383;-31
2022/05/30 07:30:55;;;;;;;1.67;0.70;;;;;;;;;;5036222;28;20049;-32
2022/05/30 07:33:21;;;;;;;1.60;0.75;;;;;;;;;;5041932;28;20052;-32
2022/05/30 07:35:48;;;;;;;1.92;0.73;;;;;;;;;;5041450;28;20064;-32
2022/05/30 07:38:14;;;;;;;1.50;0.70;;;;;;;;;;5038575;28;20055;-32
2022/05/30 07:40:40;;;;;;;1.90;0.90;;;;;;;;;;5032950;28;20483;-31
2022/05/30 07:43:06;;;;;;;1.92;0.90;;;;;;;;;;5042592;28;20395;-31
2022/05/30 07:45:32;;;;;;;2.70;0.80;;;;;;;;;;5043912;28;20036;-31
2022/05/30 07:47:58;;;;;;;2.15;0.73;;;;;;;;;;5048932;28;20562;-31
2022/05/30 07:50:24;;;;;;;2.25;0.75;;;;;;;;;;5041913;28;20107;-33
2022/05/30 07:52:50;;;;;;;2.08;0.82;;;;;;;;;;5040938;28;20398;-34
2022/05/30 07:55:16;;;;;;;1.92;0.70;;;;;;;;;;5039570;28;20037;-33
2022/05/30 07:57:52;;;;;;;1.05;0.70;;;;;;;;;;5048014;28;20112;-32
2022/05/30 08:00:19;;;;;;;1.17;0.80;;;;;;;;;;5045690;28;20044;-30
2022/05/30 08:02:45;;;;;;;1.55;0.68;;;;;;;;;;5045208;28;20079;-31
2022/05/30 08:05:12;;;;;;;1.55;0.63;;;;;;;;;;5042948;28;20080;-31
2022/05/30 08:07:39;;;;;;;5.05;1.00;;;;;;;;;;5041312;28;20037;-31
2022/05/30 08:10:06;;;;;;;2.08;0.77;;;;;;;;;;5038068;28;20135;-33
2022/05/30 08:12:33;;;;;;;2.45;0.80;;;;;;;;;;5043290;28;20076;-31
2022/05/30 08:14:59;;;;;;;1.73;0.90;;;;;;;;;;5046248;28;20417;-30
2022/05/30 08:17:25;;;;;;;1.45;0.60;;;;;;;;;;5038839;28;20125;-33
2022/05/30 08:19:51;;;;;;;1.95;0.90;;;;;;;;;;5040825;28;20097;-30
2022/05/30 08:22:18;;;;;;;1.35;0.90;;;;;;;;;;5043772;28;20029;-32
2022/05/30 08:24:52;;;;;;;3.25;0.82;;;;;;;;;;5050362;28;20044;-32
2022/05/30 08:27:18;;;;;;;;;;;;;;;;;;5051075;28;20079;-32
2022/05/30 08:29:44;;;;;;;1.83;0.60;;;;;;;;;;5048031;28;19972;-30
2022/05/30 08:32:10;;;;;;;2.35;0.80;;;;;;;;;;5043086;28;20098;-34
2022/05/30 08:34:37;;;;;;;1.00;0.60;;;;;;;;;;5020822;28;20168;-32
2022/05/30 08:37:03;;;;;;;2.05;0.70;;;;;;;;;;5041576;28;20044;-32
2022/05/30 08:42:14;;;;;;;1.20;0.80;;;;;;;;;;5041374;28;20120;-32
2022/05/30 08:44:40;;;;;;;1.25;0.75;;;;;;;;;;5042978;28;20041;-33
2022/05/30 08:47:12;;;;;;;1.98;0.85;;;;;;;;;;5044412;28;20494;-32
2022/05/30 08:49:46;;;;;;;1.30;0.82;;;;;;;;;;5044388;28;20045;-32
2022/05/30 08:52:27;;;;;;;0.70;0.70;;;;;;;;;;5037697;28;20060;-32
2022/05/30 08:55:13;;;;;;;0.85;0.65;;;;;;;;;;5041115;28;20033;-30
2022/05/30 08:58:02;;;;;;;1.77;0.68;;;;;;;;;;5042596;28;20057;-36
2022/05/30 09:00:41;;;;;;;0.75;0.60;;;;;;;;;;5042661;28;20033;-31
2022/05/30 09:03:18;;;;;;;0.85;0.50;;;;;;;;;;5048063;28;20032;-34
2022/05/30 09:05:48;;;;;;;1.02;0.57;;;;;;;;;;5049930;28;20068;-36
2022/05/30 09:08:18;;;;;;;1.85;0.45;;;;;;;;;;5041016;28;20029;-32
2022/05/30 09:10:49;;;;;;;0.95;0.60;;;;;;;;;;5045537;28;20048;-33
2022/05/30 09:13:23;;;;;;;3.00;0.57;;;;;;;;;;5043647;28;20072;-33
2022/05/30 09:15:56;;;;;;;1.77;0.60;;;;;;;;;;5036304;28;20037;-32
2022/05/30 09:18:35;;;;;;;0.80;0.45;;;;;;;;;;5043586;28;20483;-31
2022/05/30 09:21:02;;;;;;;1.60;0.68;;;;;;;;;;5037033;28;20036;-32
2022/05/30 09:23:28;;;;;;;1.13;0.90;;;;;;;;;;5042333;28;20085;-33
2022/05/30 09:26:00;;;;;;;1.80;0.63;;;;;;;;;;5043569;28;20053;-31
2022/05/30 09:28:27;;;;;;;1.35;0.70;;;;;;;;;;5039790;28;20049;-32
2022/05/30 09:30:56;;;;;;;3.03;0.60;;;;;;;;;;5044422;28;20045;-32
2022/05/30 09:33:28;;;;;;;1.13;0.60;;;;;;;;;;5045945;28;20082;-35
2022/05/30 09:36:13;;;;;;;1.58;0.60;;;;;;;;;;5042128;28;20143;-37
2022/05/30 09:38:43;;;;;;;1.55;0.75;;;;;;;;;;5042165;28;20029;-34
2022/05/30 09:41:29;;;;;;;0.65;0.50;;;;;;;;;;5043229;28;20037;-30
2022/05/30 09:44:01;;;;;;;0.80;0.65;;;;;;;;;;5038325;28;20037;-35
2022/05/30 09:46:38;;;;;;;1.35;0.60;;;;;;;;;;5039791;28;20041;-29
2022/05/30 09:49:05;;;;;;;0.70;0.52;;;;;;;;;;5038968;28;20049;-31
2022/05/30 09:51:36;;;;;;;1.75;0.60;;;;;;;;;;5043944;28;20037;-31
2022/05/30 09:54:02;;;;;;;2.30;0.82;;;;;;;;;;5032500;28;20044;-31
2022/05/30 09:56:30;;;;;;;1.15;0.55;;;;;;;;;;5041456;28;20037;-31
2022/05/30 09:59:07;;;;;;;1.20;0.68;;;;;;;;;;5039924;28;20119;-30
2022/05/30 10:01:34;;;;;;;1.75;0.55;;;;;;;;;;5040308;28;20116;-31
2022/05/30 10:04:31;;;;;;;0.60;0.45;;;;;;;;;;5042470;28;20040;-32
2022/05/30 10:07:05;;;;;;;0.80;0.30;;;;;;;;;;5017135;28;20132;-32
2022/05/30 10:09:33;;;;;;;0.98;0.50;;;;;;;;;;5037885;28;20109;-32
2022/05/30 10:11:59;;;;;;;1.83;0.50;;;;;;;;;;5043665;28;20048;-34
2022/05/30 10:14:32;;;;;;;1.45;0.60;;;;;;;;;;5041507;28;20083;-32
2022/05/30 10:17:01;;;;;;;0.60;0.60;;;;;;;;;;5039248;28;20124;-32
2022/05/30 10:19:31;;;;;;;0.95;0.50;;;;;;;;;;5037980;28;20094;-31
2022/05/30 10:28:28;;;;;;;0.80;0.60;;;;;;;;;;5044037;28;20123;-32
2022/05/30 10:30:54;;;;;;;0.95;0.50;;;;;;;;;;5042608;28;20142;-35
2022/05/30 10:33:40;;;;;;;1.95;0.70;;;;;;;;;;5035895;28;20084;-31
2022/05/30 10:36:09;;;;;;;1.52;0.65;;;;;;;;;;5040412;28;20072;-33
2022/05/30 10:38:46;;;;;;;2.50;0.80;;;;;;;;;;5035485;28;20044;-32
2022/05/30 10:41:17;;;;;;;1.70;0.93;;;;;;;;;;5043494;28;20040;-32
2022/05/30 10:43:47;;;;;;;1.05;0.73;;;;;;;;;;5046379;28;20045;-33
2022/05/30 10:46:19;;;;;;;0.90;0.70;;;;;;;;;;5042005;28;20395;-33
2022/05/30 10:48:55;;;;;;;0.65;0.65;;;;;;;;;;5036828;28;20072;-33
2022/05/30 10:51:28;;;;;;;2.25;0.80;;;;;;;;;;5036332;28;20053;-34
2022/05/30 10:54:04;;;;;;;0.80;0.40;;;;;;;;;;5021670;28;20052;-30
2022/05/30 10:56:39;;;;;;;1.98;0.52;;;;;;;;;;5031678;28;20045;-29
2022/05/30 10:59:24;;;;;;;1.58;0.45;;;;;;;;;;5045054;28;20044;-30
2022/05/30 11:01:53;;;;;;;1.35;0.50;;;;;;;;;;5033170;28;20116;-30
2022/05/30 11:04:26;;;;;;;0.90;0.40;;;;;;;;;;5048278;28;20045;-31
2022/05/30 11:06:53;;;;;;;1.08;0.40;;;;;;;;;;5052035;28;20447;-31
2022/05/30 11:09:22;;;;;;;1.27;0.32;;;;;;;;;;5051429;28;20037;-30
2022/05/30 11:12:00;;;;;;;0.68;0.30;;;;;;;;;;5051309;28;20403;-31
2022/05/30 11:14:31;;;;;;;0.30;0.30;;;;;;;;;;5045160;28;20041;-30
2022/05/30 11:17:23;;;;;;;0.77;0.40;;;;;;;;;;5050794;28;20044;-30
2022/05/30 11:20:22;;;;;;;1.15;0.70;;;;;;;;;;5048300;28;20049;-31
2022/05/30 11:22:49;;;;;;;1.67;0.60;;;;;;;;;;4997735;28;20041;-30
2022/05/30 11:25:17;;;;;;;1.02;0.60;;;;;;;;;;5031345;28;20053;-30
2022/05/30 11:27:49;;;;;;;2.40;0.65;;;;;;;;;;5051374;28;20080;-30
2022/05/30 11:30:21;;;;;;;1.42;0.60;;;;;;;;;;5051512;28;20128;-30
2022/05/30 11:33:02;;;;;;;2.20;0.57;;;;;;;;;;5050356;28;20052;-31
2022/05/30 11:35:39;;;;;;;1.35;0.90;;;;;;;;;;5041930;28;20045;-30
2022/05/30 11:38:17;;;;;;;1.60;0.80;;;;;;;;;;5042907;28;20052;-30
2022/05/30 11:40:43;;;;;;;2.40;0.80;;;;;;;;;;5042468;28;20079;-33
2022/05/30 11:43:09;;;;;;;2.08;0.77;;;;;;;;;;5042655;28;20447;-30
2022/05/30 11:45:35;;;;;;;1.70;0.80;;;;;;;;;;5043724;28;20033;-34
2022/05/30 11:48:06;;;;;;;1.90;1.17;;;;;;;;;;5042627;28;20059;-31
2022/05/30 11:50:34;;;;;;;1.67;0.95;;;;;;;;;;5036367;28;20044;-33
2022/05/30 11:53:03;;;;;;;2.75;0.70;;;;;;;;;;5040148;28;20037;-32
2022/05/30 11:55:41;;;;;;;1.33;0.82;;;;;;;;;;5044173;28;20566;-33
2022/05/30 11:58:12;;;;;;;2.28;1.00;;;;;;;;;;5048646;28;20095;-31
2022/05/30 12:00:43;;;;;;;1.52;1.15;;;;;;;;;;5038662;28;20032;-32
2022/05/30 12:03:29;;;;;;;1.17;0.80;;;;;;;;;;5041846;28;20063;-33
2022/05/30 12:06:15;;;;;;;1.77;1.00;;;;;;;;;;5037679;28;20067;-33
2022/05/30 12:09:00;;;;;;;1.90;0.85;;;;;;;;;;5047896;28;20044;-34
2022/05/30 12:11:29;;;;;;;2.33;0.88;;;;;;;;;;5039527;28;20526;-32
2022/05/30 12:14:04;;;;;;;1.98;0.73;;;;;;;;;;5038213;28;20417;-31
2022/05/30 12:16:42;;;;;;;1.45;0.73;;;;;;;;;;5048876;28;20092;-35
2022/05/30 12:24:49;;;;;;;1.67;0.80;;;;;;;;;;5042145;28;20551;-32
2022/05/30 12:27:34;;;;;;;1.35;0.73;;;;;;;;;;5045978;28;20111;-34
2022/05/30 12:30:02;;;;;;;2.28;0.60;;;;;;;;;;5044343;28;20077;-34
2022/05/30 12:32:36;;;;;;;2.95;0.88;;;;;;;;;;5032720;28;20084;-32
2022/05/30 12:35:11;;;;;;;2.92;0.80;;;;;;;;;;5038992;28;20046;-32
2022/05/30 12:37:44;;;;;;;2.40;0.80;;;;;;;;;;5043039;28;20041;-33
2022/05/30 12:40:13;;;;;;;1.70;0.93;;;;;;;;;;5046268;28;20033;-35
2022/05/30 12:42:43;;;;;;;1.77;0.88;;;;;;;;;;5037979;28;20037;-32
2022/05/30 12:45:16;;;;;;;2.80;1.00;;;;;;;;;;5044164;28;20077;-32
2022/05/30 12:47:49;;;;;;;0.98;0.70;;;;;;;;;;5051879;28;20037;-32
2022/05/30 12:50:25;;;;;;;1.77;0.57;;;;;;;;;;5052059;28;20048;-31
2022/05/30 12:52:56;;;;;;;1.98;0.93;;;;;;;;;;5049864;28;20044;-31
2022/05/30 12:55:33;;;;;;;4.05;1.00;;;;;;;;;;5052753;28;20045;-33
2022/05/30 12:57:59;;;;;;;1.60;0.93;;;;;;;;;;5052294;28;20061;-33
2022/05/30 13:00:41;;;;;;;1.02;0.77;;;;;;;;;;5046828;28;20041;-33
2022/05/30 13:03:25;;;;;;;2.33;0.88;;;;;;;;;;5045052;28;20041;-33
2022/05/30 13:06:00;;;;;;;1.55;0.80;;;;;;;;;;5041112;28;20087;-32
2022/05/30 13:08:45;;;;;;;1.02;0.88;;;;;;;;;;5043290;28;20045;-33
2022/05/30 13:11:12;;;;;;;3.03;0.90;;;;;;;;;;5050964;28;20040;-32
2022/05/30 13:13:43;;;;;;;1.52;0.80;;;;;;;;;;5035545;28;20399;-31
2022/05/30 13:16:13;;;;;;;1.35;0.88;;;;;;;;;;5036795;28;20033;-35
2022/05/30 13:18:40;;;;;;;3.35;0.80;;;;;;;;;;5042428;28;20033;-32
2022/05/30 13:21:07;;;;;;;1.80;0.70;;;;;;;;;;5035951;28;20041;-34
2022/05/30 13:23:34;;;;;;;1.42;0.70;;;;;;;;;;5043182;28;20033;-33
2022/05/30 13:26:01;;;;;;;1.38;0.50;;;;;;;;;;5053210;28;20478;-30
2022/05/30 13:28:34;;;;;;;1.52;0.70;;;;;;;;;;5053226;28;20121;-30
2022/05/30 13:31:02;;;;;;;1.42;0.60;;;;;;;;;;5053446;28;20445;-30
2022/05/30 13:33:31;;;;;;;0.60;0.40;;;;;;;;;;5052961;28;20041;-30
2022/05/30 13:35:58;;;;;;;1.42;0.70;;;;;;;;;;5053064;28;20037;-30
2022/05/30 13:38:36;;;;;;;1.20;0.40;;;;;;;;;;5052869;28;20033;-30
2022/05/30 13:41:20;;;;;;;0.80;0.60;;;;;;;;;;5039505;28;20443;-31
2022/05/30 13:43:46;;;;;;;1.33;0.50;;;;;;;;;;5038646;28;20049;-30
2022/05/30 13:46:12;;;;;;;0.50;0.50;;;;;;;;;;5041557;28;20510;-31
2022/05/30 13:48:39;;;;;;;2.55;0.60;;;;;;;;;;5028187;28;20044;-30
2022/05/30 13:51:05;;;;;;;1.25;0.80;;;;;;;;;;5052894;28;20056;-30
2022/05/30 13:53:33;;;;;;;0.98;0.57;;;;;;;;;;5052512;28;20041;-32
2022/05/30 13:55:59;;;;;;;1.98;0.70;;;;;;;;;;5053129;28;20056;-31
2022/05/30 13:58:26;;;;;;;0.60;0.52;;;;;;;;;;5052652;28;20070;-30
2022/05/30 14:00:53;;;;;;;0.60;0.60;;;;;;;;;;5016236;28;20037;-30
2022/05/30 14:03:19;;;;;;;1.60;0.60;;;;;;;;;;5051427;28;20465;-29
2022/05/30 14:05:46;;;;;;;1.05;0.70;;;;;;;;;;5052875;28;20063;-30
2022/05/30 14:08:30;;;;;;;0.73;0.50;;;;;;;;;;5052215;28;20041;-31
2022/05/30 14:11:06;;;;;;;1.52;0.50;;;;;;;;;;5052553;28;20473;-31
2022/05/30 14:13:37;;;;;;;2.15;0.55;;;;;;;;;;5040161;28;20059;-31
2022/05/30 14:16:05;;;;;;;1.20;0.52;;;;;;;;;;5047136;28;20121;-30
2022/05/30 14:18:35;;;;;;;0.63;0.40;;;;;;;;;;5040355;28;20045;-31
2022/05/30 14:21:02;;;;;;;2.05;0.80;;;;;;;;;;5042258;28;20080;-31
2022/05/30 14:23:29;;;;;;;0.88;0.50;;;;;;;;;;5048410;28;20443;-30
2022/05/30 14:25:55;;;;;;;0.80;0.70;;;;;;;;;;5052689;28;20456;-30
2022/05/30 14:28:29;;;;;;;0.90;0.50;;;;;;;;;;5042550;28;20037;-31
2022/05/30 14:31:11;;;;;;;1.08;0.50;;;;;;;;;;5051948;28;20048;-31
2022/05/30 14:33:37;;;;;;;2.15;0.50;;;;;;;;;;5044372;28;20043;-31
2022/05/30 14:36:24;;;;;;;1.13;0.60;;;;;;;;;;5044407;28;20041;-30
2022/05/30 14:38:51;;;;;;;1.33;0.65;;;;;;;;;;5037551;28;20467;-29
2022/05/30 14:41:21;;;;;;;1.30;0.80;;;;;;;;;;5051646;28;20068;-30
2022/05/30 14:43:51;;;;;;;2.15;0.50;;;;;;;;;;5048989;28;20037;-30
2022/05/30 14:46:17;;;;;;;0.70;0.60;;;;;;;;;;5045049;28;20048;-30
2022/05/30 14:48:45;;;;;;;3.80;0.80;;;;;;;;;;5050074;28;20048;-30
2022/05/30 14:51:15;;;;;;;0.63;0.40;;;;;;;;;;5049361;28;20037;-31
2022/05/30 14:53:42;;;;;;;1.50;0.70;;;;;;;;;;5030036;28;20046;-31
2022/05/30 14:56:13;;;;;;;2.22;0.90;;;;;;;;;;5046794;28;20037;-33
2022/05/30 14:58:39;;;;;;;1.17;0.50;;;;;;;;;;5050895;28;20037;-29
2022/05/30 15:01:06;;;;;;;1.83;0.50;;;;;;;;;;5049922;28;20040;-30
2022/05/30 15:06:20;;;;;;;1.02;0.40;;;;;;;;;;5049663;28;20072;-30
2022/05/30 15:08:46;;;;;;;1.33;0.57;;;;;;;;;;5044225;28;20083;-30
2022/05/30 15:11:22;;;;;;;3.25;0.98;;;;;;;;;;5049139;28;20514;-30
2022/05/30 15:13:51;;;;;;;1.30;0.50;;;;;;;;;;5047067;28;20098;-31
2022/05/30 15:16:17;;;;;;;1.77;0.85;;;;;;;;;;5036053;28;20469;-29
2022/05/30 15:18:44;;;;;;;1.83;0.50;;;;;;;;;;5047010;28;20041;-29
2022/05/30 15:21:11;;;;;;;1.17;0.50;;;;;;;;;;5051300;28;20045;-29